Unicom:                    122.8

AWOS:                  118.275

Elevation           1458’ MSL

TPA:                   2500’ MSL

06/24:         5003’ L   75’ W

PAPI:       06/Left     24/Left

(Operate lights on unicom freq.)

Traffic Pattern: Left

Beacon: Sunset to Sunrise

Windsock: yes, lighted

Segmented Circle: No

 

Cleveland Center: 126.72/291.65

FSS: Altoona

[Source: ADDS]
METAR
KFKL 190156Z AUTO 01006KT 10SM CLR 18/17 A3020 RMK AO2 SLP222 T01830167 =
KFKL 182320Z 1900/1924 35005KT P6SM SKC FM190800 00000KT 2SM BR SCT003 TEMPO 1908/1912 1SM BR BKN003 FM191300 07005KT P6SM SKC
TAF
KFKL 182320Z 1900/1924 35005KT P6SM SKC FM190800 00000KT 2SM BR SCT003 TEMPO 1908/1912 1SM BR BKN003 FM191300 07005KT P6SM SKC =
[Source: ADDS]
METAR
KDUJ 190153Z AUTO 36005KT 10SM CLR 19/16 A3018 RMK AO2 SLP209 T01940161 =
KDUJ 182320Z 1900/1924 34005KT P6SM SKC FM190900 00000KT 2SM BR SCT005 TEMPO 1909/1912 3/4SM BR VV005 FM191300 06005KT P6SM SKC
TAF
KDUJ 182320Z 1900/1924 34005KT P6SM SKC FM190900 00000KT 2SM BR SCT005 TEMPO 1909/1912 3/4SM BR VV005 FM191300 06005KT P6SM SKC =

Resources.


We are a PSI Computer Testing Facility.

To schedule an FAA exam, i.e. Private Pilot, Drone, Flight Instructor, Parachute Rigger you can schedule through CATS with the icon below, or call the airport at 814-226-9993.

Pilot Supplies.